Time;durP1;ratioP1;P1;durP2;ratioP2;P2;SDS_P1;SDS_P2;PMS_P1;PMS_P2;Temp;Humidity;BMP_temperature;BMP_pressure;BME280_temperature;BME280_humidity;BME280_pressure;Samples;Min_cycle;Max_cycle;Signal;HPM_P1;HPM_P2
2021/04/02 00:04:12;;;;;;;7.28;6.68;;;;;;;7.23;69.62;100430.94;10443984;28;20037;-68
2021/04/02 00:09:14;;;;;;;7.80;7.07;;;;;;;7.25;69.43;100434.38;10463400;28;20053;-69
2021/04/02 00:14:15;;;;;;;7.35;6.85;;;;;;;7.21;69.04;100430.06;10462000;28;20127;-68
2021/04/02 00:19:17;;;;;;;8.10;7.50;;;;;;;7.08;69.70;100430.22;10461971;28;20053;-67
2021/04/02 00:24:18;;;;;;;7.30;6.70;;;;;;;7.14;69.88;100418.84;10461748;28;20487;-67
2021/04/02 00:29:19;;;;;;;7.60;7.00;;;;;;;7.08;70.11;100408.44;10462733;28;20053;-68
2021/04/02 00:34:20;;;;;;;7.80;7.25;;;;;;;7.22;69.52;100414.38;10461342;28;20045;-68
2021/04/02 00:39:22;;;;;;;7.10;6.63;;;;;;;7.27;69.07;100415.19;10444438;28;20059;-68
2021/04/02 00:44:23;;;;;;;8.60;8.00;;;;;;;7.30;68.98;100414.28;10462793;28;20045;-68
2021/04/02 00:49:24;;;;;;;7.35;6.85;;;;;;;7.09;69.35;100412.78;10469873;28;20045;-68
2021/04/02 00:54:26;;;;;;;8.23;7.53;;;;;;;7.20;69.40;100412.66;10468704;28;20060;-67
2021/04/02 00:59:27;;;;;;;7.18;6.60;;;;;;;7.29;69.12;100423.00;10450634;28;20049;-68
2021/04/02 01:04:28;;;;;;;6.93;6.53;;;;;;;7.20;69.03;100412.66;10451876;28;20072;-68
2021/04/02 01:09:30;;;;;;;7.75;7.15;;;;;;;7.34;68.65;100406.38;10449512;28;20454;-68
2021/04/02 01:14:31;;;;;;;7.03;6.53;;;;;;;7.28;68.74;100409.06;10449606;28;20064;-68
2021/04/02 01:19:38;;;;;;;8.30;7.70;;;;;;;7.25;69.17;100408.22;10450258;28;20570;-67
2021/04/02 01:25:17;;;;;;;8.35;7.70;;;;;;;7.33;69.20;100409.88;10467895;28;20047;-67
2021/04/02 01:30:19;;;;;;;7.80;7.20;;;;;;;7.23;69.41;100408.25;10449943;28;20076;-67
2021/04/02 01:35:37;;;;;;;8.18;7.68;;;;;;;7.31;69.08;100416.03;10450224;28;20110;-67
2021/04/02 01:40:44;;;;;;;9.32;8.73;;;;;;;7.18;69.51;100414.44;10449003;28;20045;-68
2021/04/02 01:45:48;;;;;;;10.65;9.93;;;;;;;7.03;70.30;100418.94;10449085;28;20045;-68
2021/04/02 01:50:52;;;;;;;11.40;10.70;;;;;;;7.06;70.89;100418.91;10448381;28;20120;-67
2021/04/02 01:55:55;;;;;;;14.40;13.20;;;;;;;7.10;71.30;100429.34;10448967;28;20119;-68
2021/04/02 02:01:00;;;;;;;15.85;14.85;;;;;;;6.90;72.45;100435.63;10448362;28;20395;-69
2021/04/02 02:06:10;;;;;;;15.02;13.93;;;;;;;6.95;73.94;100439.09;10468556;28;20033;-67
2021/04/02 02:11:26;;;;;;;17.15;15.95;;;;;;;6.72;73.99;100436.69;10448139;28;20135;-67
2021/04/02 02:16:31;;;;;;;15.73;14.63;;;;;;;6.79;73.62;100433.16;10447418;28;20109;-68
2021/04/02 02:21:45;;;;;;;16.50;15.35;;;;;;;6.62;74.34;100445.50;10447928;28;20055;-67
2021/04/02 02:26:47;;;;;;;17.77;16.58;;;;;;;6.58;75.44;100444.66;10464540;28;20103;-67
2021/04/02 02:31:51;;;;;;;16.63;15.38;;;;;;;6.67;75.00;100441.09;10448603;28;20053;-68
2021/04/02 02:37:02;;;;;;;11.02;10.23;;;;;;;6.70;73.93;100450.66;10449174;28;20098;-67
2021/04/02 02:42:10;;;;;;;10.00;9.30;;;;;;;6.66;73.81;100451.56;10435092;28;20136;-66
2021/04/02 02:47:11;;;;;;;10.63;9.77;;;;;;;6.57;73.89;100452.50;10468293;28;20515;-67
2021/04/02 02:52:21;;;;;;;10.15;9.45;;;;;;;6.39;73.88;100450.94;10452062;28;20099;-67
2021/04/02 02:57:24;;;;;;;11.63;10.70;;;;;;;6.23;74.17;100463.22;10469677;28;20076;-67
2021/04/02 03:02:28;;;;;;;10.52;9.73;;;;;;;6.30;73.87;100466.66;10453489;28;20047;-67
2021/04/02 03:07:31;;;;;;;10.15;9.35;;;;;;;6.20;73.71;100465.00;10453729;28;20458;-66
2021/04/02 03:12:35;;;;;;;8.25;7.65;;;;;;;6.13;73.21;100458.94;10454192;28;20075;-66
2021/04/02 03:17:39;;;;;;;11.07;10.20;;;;;;;6.12;73.60;100458.97;10446111;28;20049;-67
2021/04/02 03:22:42;;;;;;;9.30;8.63;;;;;;;6.01;74.15;100464.25;10460455;28;20045;-66
2021/04/02 03:27:51;;;;;;;11.35;10.52;;;;;;;5.74;74.21;100467.84;10443203;28;20045;-67
2021/04/02 03:33:15;;;;;;;10.38;9.60;;;;;;;5.83;74.24;100459.97;10443939;28;20060;-67
2021/04/02 03:38:23;;;;;;;9.30;8.60;;;;;;;5.86;73.56;100467.78;10442333;28;20068;-65
2021/04/02 03:43:28;;;;;;;8.32;7.82;;;;;;;5.74;73.35;100468.69;10443215;28;20069;-66
2021/04/02 03:48:36;;;;;;;7.95;7.43;;;;;;;5.79;73.38;100466.06;10444089;28;20434;-67
2021/04/02 03:53:43;;;;;;;7.05;6.55;;;;;;;5.79;73.23;100458.25;10442905;28;20051;-66
2021/04/02 03:58:48;;;;;;;6.57;6.07;;;;;;;5.55;73.79;100462.72;10442612;28;20037;-67
2021/04/02 04:03:57;;;;;;;5.78;5.38;;;;;;;5.50;74.20;100471.44;10442579;28;20076;-66
2021/04/02 04:09:05;;;;;;;6.57;6.18;;;;;;;5.52;74.65;100456.66;10460667;28;20136;-67
2021/04/02 04:14:08;;;;;;;5.75;5.35;;;;;;;5.47;74.49;100454.06;10460035;28;20087;-67
2021/04/02 04:19:14;;;;;;;4.80;4.50;;;;;;;5.63;73.54;100462.69;10441756;28;20564;-65
2021/04/02 04:24:22;;;;;;;5.38;5.07;;;;;;;5.31;74.40;100462.81;10448425;28;20391;-65
2021/04/02 04:29:41;;;;;;;4.53;4.22;;;;;;;5.36;74.09;100466.28;10449151;28;20052;-66
2021/04/02 04:34:45;;;;;;;5.65;5.25;;;;;;;5.41;73.94;100477.56;10467913;28;20037;-67
2021/04/02 04:39:49;;;;;;;5.35;5.05;;;;;;;5.47;73.69;100474.06;10466238;28;20049;-68
2021/04/02 04:44:55;;;;;;;5.30;4.93;;;;;;;5.38;73.38;100471.47;10467304;28;20448;-66
2021/04/02 04:49:57;;;;;;;5.60;5.10;;;;;;;5.44;72.73;100472.31;10468904;28;20045;-67
2021/04/02 04:55:01;;;;;;;6.57;6.07;;;;;;;5.34;72.77;100478.44;10466946;28;20041;-66
2021/04/02 05:00:05;;;;;;;7.20;6.70;;;;;;;5.33;73.40;100476.72;10449688;28;20103;-66
2021/04/02 05:05:07;;;;;;;9.00;8.40;;;;;;;5.18;73.63;100474.13;10449963;28;20037;-66
2021/04/02 05:10:11;;;;;;;9.98;9.25;;;;;;;5.38;72.97;100474.09;10466945;28;20044;-66
2021/04/02 05:15:14;;;;;;;10.43;9.73;;;;;;;5.28;73.17;100470.66;10467060;28;20044;-66
2021/04/02 05:20:52;;;;;;;10.45;9.60;;;;;;;5.22;72.90;100470.66;10466508;28;20063;-67
2021/04/02 05:25:54;;;;;;;10.38;9.57;;;;;;;5.38;72.55;100474.94;10298723;28;20063;-66
2021/04/02 05:30:56;;;;;;;9.02;8.25;;;;;;;5.42;72.29;100475.81;10300761;28;20059;-67
2021/04/02 05:35:57;;;;;;;9.88;8.68;;;;;;;5.43;72.72;100473.19;10300345;28;20151;-66
2021/04/02 05:41:06;;;;;;;8.85;8.25;;;;;;;5.51;72.48;100476.63;10299410;28;20142;-67
2021/04/02 05:46:09;;;;;;;8.48;7.70;;;;;;;5.65;72.38;100479.19;10281868;28;20042;-67
2021/04/02 05:51:11;;;;;;;8.63;7.78;;;;;;;5.54;72.68;100481.84;10297728;28;20050;-66
2021/04/02 05:56:13;;;;;;;8.77;7.88;;;;;;;5.68;72.06;100486.16;10298140;28;20058;-67
2021/04/02 06:01:14;;;;;;;8.05;7.43;;;;;;;5.63;72.10;100487.91;10391139;28;20060;-65
2021/04/02 06:06:16;;;;;;;8.82;7.65;;;;;;;5.37;72.50;100493.22;10465803;28;20037;-67
2021/04/02 06:11:18;;;;;;;9.77;7.15;;;;;;;5.24;72.24;100497.59;10447317;28;20056;-67
2021/04/02 06:16:19;;;;;;;7.60;6.55;;;;;;;5.27;72.66;100495.00;10465374;28;20059;-68
2021/04/02 06:21:24;;;;;;;6.88;6.22;;;;;;;5.48;71.84;100494.91;10446394;28;20049;-66
2021/04/02 06:26:26;;;;;;;6.50;5.55;;;;;;;5.64;71.26;100489.63;10446262;28;20482;-66
2021/04/02 06:31:30;;;;;;;7.22;5.80;;;;;;;5.37;71.65;100493.22;10445450;28;20514;-67
2021/04/02 06:36:32;;;;;;;5.75;4.78;;;;;;;5.42;70.80;100494.94;10463469;28;20045;-66
2021/04/02 06:41:36;;;;;;;6.07;5.20;;;;;;;5.62;70.89;100496.59;10463603;28;20079;-66
2021/04/02 06:46:39;;;;;;;10.10;7.57;;;;;;;5.83;70.76;100510.41;10462081;28;20049;-67
2021/04/02 06:51:43;;;;;;;8.30;7.50;;;;;;;5.64;71.47;100513.97;10444952;28;20099;-66
2021/04/02 06:57:07;;;;;;;7.97;7.18;;;;;;;5.60;71.51;100519.22;10464293;28;20049;-66
2021/04/02 07:02:12;;;;;;;8.65;7.72;;;;;;;5.37;71.53;100530.56;10462506;28;20060;-67
2021/04/02 07:07:15;;;;;;;7.55;6.68;;;;;;;5.49;71.35;100519.22;10463094;28;20461;-68
2021/04/02 07:12:17;;;;;;;8.43;7.60;;;;;;;5.60;70.77;100529.63;10467162;28;20053;-70
2021/04/02 07:17:22;;;;;;;9.23;7.15;;;;;;;5.56;70.99;100529.63;10466386;28;20037;-67
2021/04/02 07:22:24;;;;;;;9.43;6.35;;;;;;;5.61;70.56;100533.97;10465030;28;20045;-66
2021/04/02 07:27:28;;;;;;;5.63;4.95;;;;;;;5.74;69.99;100530.44;10465316;28;20033;-68
2021/04/02 07:32:31;;;;;;;7.43;6.65;;;;;;;5.53;70.34;100529.66;10465620;28;20110;-67
2021/04/02 07:37:39;;;;;;;10.77;9.88;;;;;;;5.42;71.01;100528.81;10465362;28;20083;-68
2021/04/02 07:42:48;;;;;;;7.22;6.63;;;;;;;5.52;71.00;100527.03;10464065;28;20131;-66
2021/04/02 07:47:51;;;;;;;7.97;7.22;;;;;;;5.40;70.47;100532.28;10465136;28;20041;-66
2021/04/02 07:52:52;;;;;;;7.88;7.03;;;;;;;5.48;70.65;100527.94;10465351;28;20073;-68
2021/04/02 07:57:58;;;;;;;8.15;6.10;;;;;;;5.74;70.07;100525.22;10469399;28;20063;-67
2021/04/02 08:03:09;;;;;;;6.00;5.40;;;;;;;5.63;70.04;100521.81;10471486;28;20128;-67
2021/04/02 08:08:15;;;;;;;7.53;6.82;;;;;;;5.82;69.88;100529.53;10453962;28;20103;-67
2021/04/02 08:13:18;;;;;;;6.95;6.35;;;;;;;5.95;69.21;100529.53;10456525;28;20041;-66
2021/04/02 08:18:20;;;;;;;9.93;8.20;;;;;;;5.69;69.89;100540.03;10473060;28;20044;-66
2021/04/02 08:23:23;;;;;;;8.30;7.50;;;;;;;5.55;70.31;100540.09;10472638;28;20482;-66
2021/04/02 08:28:26;;;;;;;8.80;8.00;;;;;;;5.68;69.57;100533.94;10472787;28;20393;-66
2021/04/02 08:33:28;;;;;;;8.68;7.28;;;;;;;5.92;69.43;100533.00;10471986;28;20056;-66
2021/04/02 08:38:29;;;;;;;7.95;7.20;;;;;;;5.79;69.69;100541.72;10470956;28;20045;-66
2021/04/02 08:43:39;;;;;;;8.15;7.28;;;;;;;5.71;69.86;100547.00;10453154;28;20214;-67
2021/04/02 08:48:45;;;;;;;8.93;8.02;;;;;;;5.74;69.71;100546.97;10472612;28;20044;-66
2021/04/02 08:53:46;;;;;;;10.48;9.57;;;;;;;5.90;69.76;100553.00;10445510;28;20069;-67
2021/04/02 08:58:48;;;;;;;11.30;10.30;;;;;;;5.73;70.49;100558.28;10395017;28;20058;-67
2021/04/02 09:03:51;;;;;;;12.02;10.90;;;;;;;5.79;70.44;100555.63;10432215;28;20049;-66
2021/04/02 09:08:53;;;;;;;12.57;11.27;;;;;;;5.86;70.58;100553.88;10427449;28;20033;-70
2021/04/02 09:13:54;;;;;;;13.43;12.18;;;;;;;5.65;70.63;100557.44;10427760;28;20045;-68
2021/04/02 09:18:57;;;;;;;12.98;11.68;;;;;;;5.46;72.04;100560.97;10427388;28;20041;-69
2021/04/02 09:23:58;;;;;;;11.07;10.13;;;;;;;5.50;71.49;100553.13;10426669;28;20045;-69
2021/04/02 09:29:02;;;;;;;10.30;9.40;;;;;;;5.54;71.32;100559.22;10426082;28;20048;-70
2021/04/02 09:34:06;;;;;;;9.73;8.82;;;;;;;5.61;70.80;100553.09;10427411;28;20053;-69
2021/04/02 09:39:11;;;;;;;9.88;8.98;;;;;;;5.49;71.47;100551.41;10426317;28;20084;-68
2021/04/02 09:44:15;;;;;;;8.88;7.97;;;;;;;5.66;71.43;100553.94;10392824;28;20075;-70
2021/04/02 09:49:24;;;;;;;6.60;6.10;;;;;;;5.57;71.43;100549.63;10426230;28;20041;-69
2021/04/02 09:54:27;;;;;;;7.28;5.72;;;;;;;5.71;71.44;100541.78;10408843;28;20037;-70
2021/04/02 09:59:28;;;;;;;7.65;6.95;;;;;;;5.66;71.93;100543.50;10407782;28;20049;-70
2021/04/02 10:04:30;;;;;;;7.82;7.03;;;;;;;5.56;72.12;100547.03;10426065;28;20045;-69
2021/04/02 10:09:31;;;;;;;5.82;5.28;;;;;;;5.55;71.77;100540.09;10425276;28;20072;-69
2021/04/02 10:14:32;;;;;;;5.32;4.82;;;;;;;5.68;70.90;100544.38;10424242;28;20079;-68
2021/04/02 10:19:34;;;;;;;5.60;5.00;;;;;;;5.81;70.70;100537.38;10406210;28;20498;-68
2021/04/02 10:24:35;;;;;;;3.80;3.42;;;;;;;5.55;70.36;100535.72;10424298;28;20461;-69
2021/04/02 10:29:36;;;;;;;4.80;4.40;;;;;;;5.55;71.09;100535.72;10424287;28;20092;-68
2021/04/02 10:34:38;;;;;;;4.90;4.35;;;;;;;5.67;70.73;100533.97;10424278;28;20052;-69
2021/04/02 10:39:40;;;;;;;3.75;3.38;;;;;;;5.70;70.20;100533.94;10407080;28;20053;-68
2021/04/02 10:44:41;;;;;;;4.45;4.07;;;;;;;5.82;69.77;100526.06;10423340;28;20132;-68
2021/04/02 10:49:42;;;;;;;4.15;3.70;;;;;;;5.95;69.55;100517.34;10422953;28;20128;-69
2021/04/02 10:54:44;;;;;;;4.38;3.10;;;;;;;6.29;68.56;100497.13;10407209;28;20045;-69
2021/04/02 10:59:45;;;;;;;4.53;3.15;;;;;;;6.63;67.04;100493.38;10417323;28;20609;-68
2021/04/02 11:04:46;;;;;;;3.50;3.20;;;;;;;6.83;67.64;100484.50;10387877;28;20095;-71
2021/04/02 11:09:48;;;;;;;3.97;3.67;;;;;;;7.15;66.55;100474.59;10392462;28;20459;-67
2021/04/02 11:14:49;;;;;;;3.30;3.00;;;;;;;7.39;63.31;100468.22;10362146;28;20436;-70
2021/04/02 11:19:52;;;;;;;3.83;3.40;;;;;;;7.85;62.89;100455.41;10420192;28;20089;-68
2021/04/02 11:24:53;;;;;;;3.47;2.97;;;;;;;8.05;61.23;100439.41;10420922;28;20046;-70
2021/04/02 11:29:55;;;;;;;3.85;3.55;;;;;;;8.16;60.31;100444.50;10402151;28;20504;-69
2021/04/02 11:34:56;;;;;;;5.75;5.32;;;;;;;8.33;59.99;100434.63;10419933;28;20041;-70
2021/04/02 11:39:58;;;;;;;11.95;11.05;;;;;;;8.20;59.15;100425.25;10403556;28;20080;-69
2021/04/02 11:44:59;;;;;;;10.32;9.38;;;;;;;8.34;58.04;100420.63;10420094;28;20037;-70
2021/04/02 11:50:01;;;;;;;10.65;9.82;;;;;;;8.18;59.55;100433.09;10401504;28;20049;-69
2021/04/02 11:55:04;;;;;;;9.35;8.55;;;;;;;8.42;59.63;100426.66;10419392;28;20055;-69
2021/04/02 12:00:08;;;;;;;6.70;6.00;;;;;;;8.27;59.99;100425.09;10420014;28;20510;-70
2021/04/02 12:05:13;;;;;;;5.53;4.93;;;;;;;8.40;59.73;100417.06;10419675;28;20423;-67
2021/04/02 12:10:14;;;;;;;5.43;4.75;;;;;;;8.24;58.88;100416.44;10402120;28;20851;-70
2021/04/02 12:15:16;;;;;;;5.03;4.50;;;;;;;8.02;59.33;100413.31;10420266;28;20037;-69
2021/04/02 12:20:18;;;;;;;3.67;3.38;;;;;;;7.94;60.30;100415.16;10420656;28;20052;-70
2021/04/02 12:25:19;;;;;;;2.85;2.63;;;;;;;8.04;59.11;100417.59;10421485;28;20437;-69
2021/04/02 12:30:21;;;;;;;2.97;2.33;;;;;;;7.99;58.75;100406.34;10420515;28;20051;-70
2021/04/02 12:35:22;;;;;;;2.85;2.65;;;;;;;7.82;58.83;100406.59;10419935;28;20045;-69
2021/04/02 12:40:24;;;;;;;2.85;2.53;;;;;;;7.62;59.24;100402.56;10403416;28;20407;-71
2021/04/02 12:45:26;;;;;;;3.45;3.05;;;;;;;7.82;59.75;100405.72;10427397;28;20064;-69
2021/04/02 12:50:27;;;;;;;3.28;2.97;;;;;;;7.98;59.45;100385.44;10410035;28;20519;-69
2021/04/02 12:55:30;;;;;;;3.47;2.55;;;;;;;7.91;58.76;100381.16;10427162;28;20038;-68
2021/04/02 13:00:32;;;;;;;3.85;3.08;;;;;;;8.01;59.80;100377.50;10408737;28;20045;-69
2021/04/02 13:05:33;;;;;;;4.03;2.83;;;;;;;8.02;58.93;100358.31;10426015;28;20104;-69
2021/04/02 13:10:34;;;;;;;3.47;2.70;;;;;;;8.23;58.67;100357.94;10409048;28;20450;-70
2021/04/02 13:15:36;;;;;;;2.78;2.55;;;;;;;8.46;58.45;100347.13;10408970;28;20049;-69
2021/04/02 13:20:38;;;;;;;3.38;3.08;;;;;;;8.54;58.26;100340.00;10425883;28;20384;-69
2021/04/02 13:25:40;;;;;;;2.90;2.70;;;;;;;8.76;57.68;100332.56;10426217;28;20046;-70
2021/04/02 13:30:42;;;;;;;2.50;2.30;;;;;;;8.71;57.31;100312.56;10425931;28;20041;-68
2021/04/02 13:35:44;;;;;;;2.55;2.15;;;;;;;8.70;56.74;100316.97;10409248;28;20484;-70
2021/04/02 13:40:45;;;;;;;3.53;3.17;;;;;;;8.84;57.25;100293.09;10426707;28;20416;-68
2021/04/02 13:45:47;;;;;;;2.70;2.45;;;;;;;9.21;56.08;100285.31;10427040;28;20395;-69
2021/04/02 13:50:48;;;;;;;2.40;2.20;;;;;;;9.42;55.49;100288.34;10409062;28;20468;-72
2021/04/02 13:55:49;;;;;;;2.47;1.90;;;;;;;9.37;53.71;100283.19;10406578;28;20488;-68
2021/04/02 14:00:50;;;;;;;2.97;2.75;;;;;;;9.13;55.79;100289.00;10426484;28;20052;-71
2021/04/02 14:05:52;;;;;;;1.90;1.80;;;;;;;9.02;54.26;100297.94;10407865;28;20038;-69
2021/04/02 14:10:54;;;;;;;2.35;2.15;;;;;;;9.16;55.21;100296.78;10425647;28;20120;-70
2021/04/02 14:15:55;;;;;;;2.65;2.45;;;;;;;9.19;55.55;100294.09;10424511;28;20049;-69
2021/04/02 14:20:57;;;;;;;2.83;2.63;;;;;;;8.96;55.13;100277.09;10424456;28;20054;-70
2021/04/02 14:26:05;;;;;;;2.92;2.70;;;;;;;9.20;54.70;100280.09;10409352;28;20045;-69
2021/04/02 14:31:06;;;;;;;4.07;3.22;;;;;;;9.00;55.09;100267.44;10416800;28;20045;-70
2021/04/02 14:36:08;;;;;;;3.00;2.80;;;;;;;9.04;55.29;100271.72;10390225;28;20451;-69
2021/04/02 14:41:09;;;;;;;2.97;2.78;;;;;;;9.04;55.70;100277.81;10413717;28;20508;-69
2021/04/02 14:46:11;;;;;;;3.05;2.75;;;;;;;8.77;56.16;100279.25;10421057;28;20461;-70
2021/04/02 14:51:12;;;;;;;4.32;3.25;;;;;;;8.77;56.58;100275.78;10405880;28;20053;-70
2021/04/02 14:56:13;;;;;;;3.42;3.13;;;;;;;8.60;55.93;100260.38;10422222;28;20033;-69
2021/04/02 15:01:17;;;;;;;3.58;3.28;;;;;;;8.74;56.10;100245.25;10421849;28;20046;-69
2021/04/02 15:06:19;;;;;;;3.17;2.97;;;;;;;9.06;55.27;100241.91;10401641;28;20530;-69
2021/04/02 15:11:20;;;;;;;2.63;2.33;;;;;;;9.33;53.93;100229.94;10420500;28;20043;-69
2021/04/02 15:16:24;;;;;;;3.20;3.00;;;;;;;8.87;55.82;100226.63;10402725;28;20041;-70
2021/04/02 15:21:25;;;;;;;2.65;2.45;;;;;;;8.90;55.04;100214.34;10420935;28;20530;-69
2021/04/02 15:26:26;;;;;;;2.58;2.38;;;;;;;9.05;54.48;100187.75;10421578;28;20041;-69
2021/04/02 15:31:28;;;;;;;2.35;2.15;;;;;;;8.79;55.12;100187.47;10422486;28;20037;-69
2021/04/02 15:36:29;;;;;;;2.45;2.25;;;;;;;8.91;54.41;100168.88;10422041;28;20091;-71
2021/04/02 15:41:30;;;;;;;3.60;2.80;;;;;;;9.45;52.98;100141.34;10421867;28;20076;-69
2021/04/02 15:46:32;;;;;;;3.47;2.38;;;;;;;9.42;52.13;100144.03;10401733;28;20049;-69
2021/04/02 15:51:33;;;;;;;2.15;1.98;;;;;;;9.56;51.71;100127.06;10420928;28;20099;-70
2021/04/02 15:56:36;;;;;;;3.35;2.10;;;;;;;9.27;52.84;100096.31;10402027;28;20034;-69
2021/04/02 16:01:37;;;;;;;2.63;2.38;;;;;;;9.18;53.47;100122.78;10421485;28;20103;-69
2021/04/02 16:06:38;;;;;;;3.33;2.20;;;;;;;8.96;53.77;100145.16;10420287;28;20041;-67
2021/04/02 16:11:40;;;;;;;2.67;2.47;;;;;;;9.37;51.76;100144.16;10419842;28;20045;-68
2021/04/02 16:16:41;;;;;;;3.17;2.88;;;;;;;9.35;52.76;100133.72;10404273;28;20107;-69
2021/04/02 16:21:43;;;;;;;2.42;2.22;;;;;;;9.38;52.74;100124.88;10428753;28;20042;-69
2021/04/02 16:26:45;;;;;;;2.25;2.05;;;;;;;9.28;52.27;100131.25;10428321;28;20437;-69
2021/04/02 16:31:48;;;;;;;2.53;2.33;;;;;;;9.45;52.19;100130.84;10421369;28;20073;-69
2021/04/02 16:36:49;;;;;;;2.95;2.70;;;;;;;9.36;52.57;100129.31;10387245;28;20069;-68
2021/04/02 16:41:50;;;;;;;3.03;2.78;;;;;;;9.36;52.88;100126.69;10387808;28;20064;-68
2021/04/02 16:46:52;;;;;;;4.15;3.85;;;;;;;9.23;52.86;100130.53;10427675;28;20042;-68
2021/04/02 16:51:53;;;;;;;6.00;5.50;;;;;;;9.00;51.43;100131.09;10427631;28;20052;-68
2021/04/02 16:56:54;;;;;;;6.78;6.18;;;;;;;9.06;51.40;100129.16;10426372;28;20067;-68
2021/04/02 17:01:56;;;;;;;6.70;6.20;;;;;;;9.28;50.64;100126.03;10426423;28;20045;-69
2021/04/02 17:06:57;;;;;;;7.97;6.90;;;;;;;9.29;50.18;100112.00;10427113;28;20048;-68
2021/04/02 17:11:59;;;;;;;7.28;6.63;;;;;;;9.24;50.25;100100.75;10409285;28;20045;-69
2021/04/02 17:17:00;;;;;;;5.00;4.60;;;;;;;9.25;49.66;100105.09;10426578;28;20455;-69
2021/04/02 17:22:02;;;;;;;7.57;5.03;;;;;;;9.15;49.93;100094.00;10426127;28;20042;-69
2021/04/02 17:27:03;;;;;;;4.97;4.50;;;;;;;9.04;50.10;100098.66;10425625;28;20108;-68
2021/04/02 17:32:05;;;;;;;6.57;5.50;;;;;;;8.87;51.43;100114.78;10425893;28;20145;-69
2021/04/02 17:37:07;;;;;;;4.15;3.67;;;;;;;8.82;51.18;100112.25;10425912;28;20556;-69
2021/04/02 17:42:08;;;;;;;4.32;3.92;;;;;;;8.80;51.56;100116.66;10425056;28;20573;-68
2021/04/02 17:47:09;;;;;;;6.05;3.55;;;;;;;8.68;52.32;100123.97;10408650;28;20041;-68
2021/04/02 17:52:15;;;;;;;7.40;4.55;;;;;;;8.53;53.14;100136.50;10425276;28;20058;-70
2021/04/02 17:57:17;;;;;;;4.85;3.50;;;;;;;8.42;53.06;100148.13;10426360;28;20048;-69
2021/04/02 18:02:19;;;;;;;5.80;4.35;;;;;;;8.22;53.31;100154.56;10425452;28;20072;-69
2021/04/02 18:07:20;;;;;;;7.00;3.78;;;;;;;8.16;53.67;100162.56;10425527;28;20064;-68
2021/04/02 18:12:22;;;;;;;5.32;3.42;;;;;;;8.07;54.10;100165.38;10410097;28;20045;-70
2021/04/02 18:17:23;;;;;;;9.98;4.60;;;;;;;7.99;54.05;100165.50;10425357;28;20120;-69
2021/04/02 18:22:25;;;;;;;3.90;3.15;;;;;;;7.91;54.08;100177.88;10425004;28;20392;-69
2021/04/02 18:27:26;;;;;;;8.57;4.70;;;;;;;7.64;54.58;100184.47;10425037;28;20052;-69
2021/04/02 18:32:29;;;;;;;6.05;4.07;;;;;;;7.50;54.74;100197.78;10423931;28;20052;-69
2021/04/02 18:37:30;;;;;;;7.18;3.45;;;;;;;7.48;53.86;100203.91;10423130;28;20045;-69
2021/04/02 18:42:32;;;;;;;9.23;4.32;;;;;;;7.36;53.72;100209.38;10422502;28;20076;-69
2021/04/02 18:47:34;;;;;;;5.97;3.38;;;;;;;7.22;54.23;100210.44;10407922;28;20099;-69
2021/04/02 18:52:36;;;;;;;7.07;3.40;;;;;;;7.08;55.03;100218.50;10423965;28;20442;-68
2021/04/02 18:57:38;;;;;;;7.32;4.25;;;;;;;7.02;55.56;100218.56;10426415;28;20065;-71
2021/04/02 19:02:41;;;;;;;9.15;4.10;;;;;;;6.98;56.04;100216.03;10430878;28;20037;-70
2021/04/02 19:07:44;;;;;;;8.70;4.43;;;;;;;6.93;56.11;100229.16;10430054;28;20049;-71
2021/04/02 19:12:46;;;;;;;9.32;4.68;;;;;;;6.80;56.67;100236.28;10395101;28;20375;-71
2021/04/02 19:17:47;;;;;;;10.55;4.78;;;;;;;6.82;56.73;100224.09;10430079;28;20100;-70
2021/04/02 19:22:49;;;;;;;10.70;4.07;;;;;;;6.48;57.90;100236.69;10428995;28;20057;-71
2021/04/02 19:27:50;;;;;;;9.77;4.63;;;;;;;6.69;57.48;100242.56;10430075;28;20522;-71
2021/04/02 19:32:52;;;;;;;15.55;4.68;;;;;;;6.48;57.60;100254.13;10429544;28;20041;-69
2021/04/02 19:37:53;;;;;;;10.13;5.28;;;;;;;6.58;57.66;100246.16;10428577;28;20454;-71
2021/04/02 19:42:55;;;;;;;9.70;5.20;;;;;;;6.53;57.66;100247.94;10428659;28;20041;-69
2021/04/02 19:47:56;;;;;;;7.50;4.20;;;;;;;6.47;57.72;100249.78;10428291;28;20179;-69
2021/04/02 19:52:58;;;;;;;5.95;3.67;;;;;;;6.48;57.19;100244.53;10415609;28;20525;-71
2021/04/02 19:57:59;;;;;;;6.18;3.03;;;;;;;6.28;57.69;100249.97;10437395;28;20044;-70
2021/04/02 20:03:01;;;;;;;8.70;3.97;;;;;;;6.31;57.01;100256.91;10435955;28;20501;-69
2021/04/02 20:08:04;;;;;;;11.15;3.10;;;;;;;6.48;56.45;100251.50;10419490;28;20091;-70
2021/04/02 20:13:05;;;;;;;9.65;3.30;;;;;;;6.31;57.02;100247.34;10437214;28;20049;-70
2021/04/02 20:18:07;;;;;;;9.50;3.47;;;;;;;6.49;56.05;100251.47;10418809;28;20042;-70
2021/04/02 20:23:08;;;;;;;5.57;2.67;;;;;;;6.41;56.53;100252.44;10436836;28;20049;-70
2021/04/02 20:28:13;;;;;;;8.48;2.72;;;;;;;6.30;56.50;100247.34;10436850;28;20049;-70
2021/04/02 20:33:15;;;;;;;5.65;3.05;;;;;;;6.37;56.32;100242.91;10419558;28;20053;-71
2021/04/02 20:38:19;;;;;;;7.10;2.72;;;;;;;6.30;56.21;100239.53;10431700;28;20156;-70
2021/04/02 20:43:21;;;;;;;7.78;3.22;;;;;;;6.35;56.05;100239.47;10413723;28;20140;-70
2021/04/02 20:48:23;;;;;;;9.30;3.05;;;;;;;6.07;56.31;100255.44;10430376;28;20049;-69
2021/04/02 20:53:24;;;;;;;7.43;2.28;;;;;;;6.03;56.89;100249.38;10412509;28;20045;-69
2021/04/02 20:58:26;;;;;;;8.48;2.45;;;;;;;6.19;56.56;100251.81;10431432;28;20081;-68
2021/04/02 21:03:28;;;;;;;8.85;2.85;;;;;;;6.20;56.15;100256.19;10427356;28;20503;-68
2021/04/02 21:08:29;;;;;;;8.82;3.67;;;;;;;5.99;57.18;100255.50;10427845;28;20041;-69
2021/04/02 21:13:31;;;;;;;5.85;2.50;;;;;;;6.07;57.03;100258.91;10426665;28;20041;-68
2021/04/02 21:18:33;;;;;;;6.55;2.70;;;;;;;6.09;57.24;100260.63;10425758;28;20466;-69
2021/04/02 21:23:35;;;;;;;9.70;3.22;;;;;;;5.91;57.85;100252.06;10426365;28;20046;-69
2021/04/02 21:28:36;;;;;;;5.65;2.70;;;;;;;5.95;57.29;100245.09;10425357;28;20033;-69
2021/04/02 21:33:37;;;;;;;13.95;3.42;;;;;;;5.81;58.09;100251.28;10425844;28;20041;-68
2021/04/02 21:38:38;;;;;;;6.68;3.10;;;;;;;5.84;58.06;100252.97;10408568;28;20049;-68
2021/04/02 21:43:39;;;;;;;10.98;2.90;;;;;;;5.81;58.28;100256.50;10425195;28;20042;-68
2021/04/02 21:48:41;;;;;;;8.48;3.17;;;;;;;5.71;59.04;100249.66;10424681;28;20048;-68
2021/04/02 21:53:42;;;;;;;9.23;2.95;;;;;;;5.65;59.29;100248.81;10425221;28;20053;-69
2021/04/02 21:58:44;;;;;;;5.00;2.72;;;;;;;5.49;60.13;100246.34;10423880;28;20404;-69
2021/04/02 22:03:45;;;;;;;5.75;3.10;;;;;;;5.64;59.86;100247.09;10423744;28;20503;-69
2021/04/02 22:08:46;;;;;;;8.73;3.05;;;;;;;5.37;60.84;100238.59;10406888;28;20041;-69
2021/04/02 22:13:48;;;;;;;5.70;2.70;;;;;;;5.39;60.88;100230.78;10423255;28;20064;-69
2021/04/02 22:18:49;;;;;;;4.95;2.58;;;;;;;5.33;61.29;100242.13;10424004;28;20141;-67
2021/04/02 22:23:54;;;;;;;5.50;2.75;;;;;;;5.27;62.17;100237.81;10422666;28;20053;-68
2021/04/02 22:28:55;;;;;;;7.22;2.63;;;;;;;5.16;62.40;100241.34;10423711;28;20048;-69
2021/04/02 22:33:57;;;;;;;3.72;1.95;;;;;;;5.29;62.57;100243.00;10406798;28;20052;-67
2021/04/02 22:39:00;;;;;;;7.20;2.55;;;;;;;5.39;62.24;100242.06;10423588;28;20037;-68
2021/04/02 22:44:02;;;;;;;3.38;2.33;;;;;;;5.35;62.82;100231.66;10425095;28;20458;-68
2021/04/02 22:49:03;;;;;;;7.43;2.20;;;;;;;5.39;62.87;100233.38;10407798;28;20398;-67
2021/04/02 22:54:05;;;;;;;5.70;2.28;;;;;;;5.20;63.85;100236.13;10405709;28;20053;-68
2021/04/02 22:59:07;;;;;;;7.25;2.42;;;;;;;5.36;63.39;100231.69;10405927;28;20073;-68
2021/04/02 23:04:08;;;;;;;5.20;2.38;;;;;;;5.27;63.78;100235.22;10403854;28;20061;-68
2021/04/02 23:09:11;;;;;;;7.28;2.50;;;;;;;5.45;63.60;100234.22;10420545;28;20083;-68
2021/04/02 23:14:12;;;;;;;8.60;2.63;;;;;;;5.50;64.78;100244.59;10420803;28;20049;-68
2021/04/02 23:19:13;;;;;;;6.07;2.97;;;;;;;5.26;66.14;100251.69;10403886;28;20041;-68
2021/04/02 23:24:15;;;;;;;7.28;4.10;;;;;;;5.11;66.10;100259.63;10420082;28;20095;-68
2021/04/02 23:29:16;;;;;;;7.18;3.72;;;;;;;4.87;67.62;100263.25;10403324;28;20120;-69